sensor_id;sensor_type;location;lat;lon;timestamp;temperature;humidity
47521;DHT22;32291;52.010;4.446;2024-03-08T00:00:12;3.50;99.90
47521;DHT22;32291;52.010;4.446;2024-03-08T00:01:20;3.50;99.90
47521;DHT22;32291;52.010;4.446;2024-03-08T00:02:22;3.50;99.90
47521;DHT22;32291;52.010;4.446;2024-03-08T00:03:30;3.50;99.90
47521;DHT22;32291;52.010;4.446;2024-03-08T00:04:32;3.50;99.90
47521;DHT22;32291;52.010;4.446;2024-03-08T00:05:35;3.50;99.90
47521;DHT22;32291;52.010;4.446;2024-03-08T00:06:44;3.50;99.90
47521;DHT22;32291;52.010;4.446;2024-03-08T00:07:52;3.50;99.90
47521;DHT22;32291;52.010;4.446;2024-03-08T00:08:55;3.50;99.90
47521;DHT22;32291;52.010;4.446;2024-03-08T00:10:06;3.50;99.90
47521;DHT22;32291;52.010;4.446;2024-03-08T00:11:17;3.50;99.90
47521;DHT22;32291;52.010;4.446;2024-03-08T00:12:24;3.50;99.90
47521;DHT22;32291;52.010;4.446;2024-03-08T00:13:33;3.50;99.90
47521;DHT22;32291;52.010;4.446;2024-03-08T00:14:40;3.50;99.90
47521;DHT22;32291;52.010;4.446;2024-03-08T00:15:47;3.50;99.90
47521;DHT22;32291;52.010;4.446;2024-03-08T00:16:54;3.50;99.90
47521;DHT22;32291;52.010;4.446;2024-03-08T00:18:00;3.50;99.90
47521;DHT22;32291;52.010;4.446;2024-03-08T00:19:07;3.50;99.90
47521;DHT22;32291;52.010;4.446;2024-03-08T00:20:16;3.60;99.90
47521;DHT22;32291;52.010;4.446;2024-03-08T00:21:21;3.50;99.90
47521;DHT22;32291;52.010;4.446;2024-03-08T00:22:28;3.50;99.90
47521;DHT22;32291;52.010;4.446;2024-03-08T00:23:36;3.50;99.90
47521;DHT22;32291;52.010;4.446;2024-03-08T00:24:43;3.40;99.90
47521;DHT22;32291;52.010;4.446;2024-03-08T00:25:50;3.40;99.90
47521;DHT22;32291;52.010;4.446;2024-03-08T00:26:57;3.40;99.90
47521;DHT22;32291;52.010;4.446;2024-03-08T00:28:05;3.40;99.90
47521;DHT22;32291;52.010;4.446;2024-03-08T00:29:12;3.40;99.90
47521;DHT22;32291;52.010;4.446;2024-03-08T00:30:19;3.40;99.90
47521;DHT22;32291;52.010;4.446;2024-03-08T00:31:27;3.40;99.90
47521;DHT22;32291;52.010;4.446;2024-03-08T00:32:34;3.40;99.90
47521;DHT22;32291;52.010;4.446;2024-03-08T00:33:42;3.40;99.90
47521;DHT22;32291;52.010;4.446;2024-03-08T00:34:44;3.40;99.90
47521;DHT22;32291;52.010;4.446;2024-03-08T00:35:46;3.40;99.90
47521;DHT22;32291;52.010;4.446;2024-03-08T00:36:54;3.40;99.90
47521;DHT22;32291;52.010;4.446;2024-03-08T00:38:00;3.40;99.90
47521;DHT22;32291;52.010;4.446;2024-03-08T00:39:09;3.30;99.90
47521;DHT22;32291;52.010;4.446;2024-03-08T00:40:13;3.30;99.90
47521;DHT22;32291;52.010;4.446;2024-03-08T00:41:20;3.30;99.90
47521;DHT22;32291;52.010;4.446;2024-03-08T00:42:27;3.30;99.90
47521;DHT22;32291;52.010;4.446;2024-03-08T00:43:30;3.30;99.90
47521;DHT22;32291;52.010;4.446;2024-03-08T00:44:36;3.30;99.90
47521;DHT22;32291;52.010;4.446;2024-03-08T00:45:44;3.20;99.90
47521;DHT22;32291;52.010;4.446;2024-03-08T00:46:51;3.20;99.90
47521;DHT22;32291;52.010;4.446;2024-03-08T00:48:00;3.20;99.90
47521;DHT22;32291;52.010;4.446;2024-03-08T00:49:06;3.20;99.90
47521;DHT22;32291;52.010;4.446;2024-03-08T00:50:13;3.20;99.90
47521;DHT22;32291;52.010;4.446;2024-03-08T00:51:15;3.20;99.90
47521;DHT22;32291;52.010;4.446;2024-03-08T00:52:22;3.20;99.90
47521;DHT22;32291;52.010;4.446;2024-03-08T00:53:30;3.20;99.90
47521;DHT22;32291;52.010;4.446;2024-03-08T00:54:37;3.10;99.90
47521;DHT22;32291;52.010;4.446;2024-03-08T00:55:43;3.20;99.90
47521;DHT22;32291;52.010;4.446;2024-03-08T00:56:47;3.10;99.90
47521;DHT22;32291;52.010;4.446;2024-03-08T00:57:54;3.10;99.90
47521;DHT22;32291;52.010;4.446;2024-03-08T00:59:01;3.10;99.90
47521;DHT22;32291;52.010;4.446;2024-03-08T01:00:09;3.10;99.90
47521;DHT22;32291;52.010;4.446;2024-03-08T01:01:13;3.00;99.90
47521;DHT22;32291;52.010;4.446;2024-03-08T01:02:22;3.00;99.90
47521;DHT22;32291;52.010;4.446;2024-03-08T01:03:29;3.00;99.90
47521;DHT22;32291;52.010;4.446;2024-03-08T01:04:38;3.00;99.90
47521;DHT22;32291;52.010;4.446;2024-03-08T01:05:45;3.00;99.90
47521;DHT22;32291;52.010;4.446;2024-03-08T01:06:52;3.00;99.90
47521;DHT22;32291;52.010;4.446;2024-03-08T01:07:58;3.00;99.90
47521;DHT22;32291;52.010;4.446;2024-03-08T01:09:00;3.00;99.90
47521;DHT22;32291;52.010;4.446;2024-03-08T01:10:07;3.00;99.90
47521;DHT22;32291;52.010;4.446;2024-03-08T01:11:17;2.90;99.90
47521;DHT22;32291;52.010;4.446;2024-03-08T01:12:24;3.00;99.90
47521;DHT22;32291;52.010;4.446;2024-03-08T01:13:31;2.90;99.90
47521;DHT22;32291;52.010;4.446;2024-03-08T01:14:38;3.00;99.90
47521;DHT22;32291;52.010;4.446;2024-03-08T01:15:45;3.00;99.90
47521;DHT22;32291;52.010;4.446;2024-03-08T01:16:52;3.00;99.90
47521;DHT22;32291;52.010;4.446;2024-03-08T01:17:59;3.00;99.90
47521;DHT22;32291;52.010;4.446;2024-03-08T01:19:02;3.00;99.90
47521;DHT22;32291;52.010;4.446;2024-03-08T01:20:10;3.00;99.90
47521;DHT22;32291;52.010;4.446;2024-03-08T01:21:18;3.00;99.90
47521;DHT22;32291;52.010;4.446;2024-03-08T01:22:25;3.00;99.90
47521;DHT22;32291;52.010;4.446;2024-03-08T01:23:33;2.90;99.90
47521;DHT22;32291;52.010;4.446;2024-03-08T01:24:41;2.90;99.90
47521;DHT22;32291;52.010;4.446;2024-03-08T01:25:47;2.90;99.90
47521;DHT22;32291;52.010;4.446;2024-03-08T01:26:53;2.90;99.90
47521;DHT22;32291;52.010;4.446;2024-03-08T01:28:00;2.90;99.90
47521;DHT22;32291;52.010;4.446;2024-03-08T01:29:07;2.90;99.90
47521;DHT22;32291;52.010;4.446;2024-03-08T01:30:10;2.90;99.90
47521;DHT22;32291;52.010;4.446;2024-03-08T01:31:12;2.90;99.90
47521;DHT22;32291;52.010;4.446;2024-03-08T01:32:20;2.80;99.90
47521;DHT22;32291;52.010;4.446;2024-03-08T01:33:29;2.90;99.90
47521;DHT22;32291;52.010;4.446;2024-03-08T01:34:40;2.80;99.90
47521;DHT22;32291;52.010;4.446;2024-03-08T01:35:42;2.80;99.90
47521;DHT22;32291;52.010;4.446;2024-03-08T01:36:49;2.80;99.90
47521;DHT22;32291;52.010;4.446;2024-03-08T01:37:51;2.80;99.90
47521;DHT22;32291;52.010;4.446;2024-03-08T01:38:58;2.80;99.90
47521;DHT22;32291;52.010;4.446;2024-03-08T01:40:06;2.80;99.90
47521;DHT22;32291;52.010;4.446;2024-03-08T01:41:15;2.80;99.90
47521;DHT22;32291;52.010;4.446;2024-03-08T01:42:24;2.80;99.90
47521;DHT22;32291;52.010;4.446;2024-03-08T01:43:27;2.70;99.90
47521;DHT22;32291;52.010;4.446;2024-03-08T01:44:35;2.70;99.90
47521;DHT22;32291;52.010;4.446;2024-03-08T01:45:37;2.80;99.90
47521;DHT22;32291;52.010;4.446;2024-03-08T01:46:40;2.80;99.90
47521;DHT22;32291;52.010;4.446;2024-03-08T01:47:47;2.70;99.90
47521;DHT22;32291;52.010;4.446;2024-03-08T01:48:54;2.70;99.90
47521;DHT22;32291;52.010;4.446;2024-03-08T01:50:02;2.70;99.90
47521;DHT22;32291;52.010;4.446;2024-03-08T01:51:08;2.70;99.90
47521;DHT22;32291;52.010;4.446;2024-03-08T01:52:16;2.70;99.90
47521;DHT22;32291;52.010;4.446;2024-03-08T01:53:26;2.70;99.90
47521;DHT22;32291;52.010;4.446;2024-03-08T01:54:35;2.70;99.90
47521;DHT22;32291;52.010;4.446;2024-03-08T01:55:39;2.60;99.90
47521;DHT22;32291;52.010;4.446;2024-03-08T01:56:41;2.60;99.90
47521;DHT22;32291;52.010;4.446;2024-03-08T01:57:44;2.60;99.90
47521;DHT22;32291;52.010;4.446;2024-03-08T01:58:51;2.60;99.90
47521;DHT22;32291;52.010;4.446;2024-03-08T01:59:58;2.60;99.90
47521;DHT22;32291;52.010;4.446;2024-03-08T02:01:00;2.60;99.90
47521;DHT22;32291;52.010;4.446;2024-03-08T02:02:11;2.60;99.90
47521;DHT22;32291;52.010;4.446;2024-03-08T02:03:24;2.70;99.90
47521;DHT22;32291;52.010;4.446;2024-03-08T02:04:31;2.70;99.90
47521;DHT22;32291;52.010;4.446;2024-03-08T02:05:40;2.60;99.90
47521;DHT22;32291;52.010;4.446;2024-03-08T02:06:47;2.60;99.90
47521;DHT22;32291;52.010;4.446;2024-03-08T02:07:55;2.60;99.90
47521;DHT22;32291;52.010;4.446;2024-03-08T02:09:03;2.60;99.90
47521;DHT22;32291;52.010;4.446;2024-03-08T02:10:12;2.60;99.90
47521;DHT22;32291;52.010;4.446;2024-03-08T02:11:20;2.60;99.90
47521;DHT22;32291;52.010;4.446;2024-03-08T02:12:27;2.50;99.90
47521;DHT22;32291;52.010;4.446;2024-03-08T02:13:30;2.60;99.90
47521;DHT22;32291;52.010;4.446;2024-03-08T02:14:32;2.50;99.90
47521;DHT22;32291;52.010;4.446;2024-03-08T02:15:57;2.50;99.90
47521;DHT22;32291;52.010;4.446;2024-03-08T02:17:05;2.60;99.90
47521;DHT22;32291;52.010;4.446;2024-03-08T02:18:12;2.50;99.90
47521;DHT22;32291;52.010;4.446;2024-03-08T02:19:19;2.50;99.90
47521;DHT22;32291;52.010;4.446;2024-03-08T02:20:21;2.50;99.90
47521;DHT22;32291;52.010;4.446;2024-03-08T02:21:29;2.40;99.90
47521;DHT22;32291;52.010;4.446;2024-03-08T02:22:32;2.40;99.90
47521;DHT22;32291;52.010;4.446;2024-03-08T02:23:40;2.40;99.90
47521;DHT22;32291;52.010;4.446;2024-03-08T02:24:46;2.40;99.90
47521;DHT22;32291;52.010;4.446;2024-03-08T02:25:55;2.40;99.90
47521;DHT22;32291;52.010;4.446;2024-03-08T02:27:02;2.40;99.90
47521;DHT22;32291;52.010;4.446;2024-03-08T02:28:05;2.30;99.90
47521;DHT22;32291;52.010;4.446;2024-03-08T02:29:08;2.30;99.90
47521;DHT22;32291;52.010;4.446;2024-03-08T02:30:11;2.30;99.90
47521;DHT22;32291;52.010;4.446;2024-03-08T02:31:14;2.30;99.90
47521;DHT22;32291;52.010;4.446;2024-03-08T02:32:16;2.30;99.90
47521;DHT22;32291;52.010;4.446;2024-03-08T02:33:18;2.30;99.90
47521;DHT22;32291;52.010;4.446;2024-03-08T02:34:26;2.30;99.90
47521;DHT22;32291;52.010;4.446;2024-03-08T02:35:33;2.30;99.90
47521;DHT22;32291;52.010;4.446;2024-03-08T02:36:40;2.20;99.90
47521;DHT22;32291;52.010;4.446;2024-03-08T02:37:43;2.20;99.90
47521;DHT22;32291;52.010;4.446;2024-03-08T02:38:45;2.30;99.90
47521;DHT22;32291;52.010;4.446;2024-03-08T02:39:48;2.30;99.90
47521;DHT22;32291;52.010;4.446;2024-03-08T02:40:55;2.20;99.90
47521;DHT22;32291;52.010;4.446;2024-03-08T02:41:57;2.30;99.90
47521;DHT22;32291;52.010;4.446;2024-03-08T02:43:04;2.30;99.90
47521;DHT22;32291;52.010;4.446;2024-03-08T02:44:06;2.20;99.90
47521;DHT22;32291;52.010;4.446;2024-03-08T02:45:09;2.20;99.90
47521;DHT22;32291;52.010;4.446;2024-03-08T02:46:18;2.20;99.90
47521;DHT22;32291;52.010;4.446;2024-03-08T02:47:25;2.20;99.90
47521;DHT22;32291;52.010;4.446;2024-03-08T02:48:32;2.20;99.90
47521;DHT22;32291;52.010;4.446;2024-03-08T02:49:43;2.30;99.90
47521;DHT22;32291;52.010;4.446;2024-03-08T02:50:51;2.30;99.90
47521;DHT22;32291;52.010;4.446;2024-03-08T02:51:53;2.30;99.90
47521;DHT22;32291;52.010;4.446;2024-03-08T02:53:01;2.30;99.90
47521;DHT22;32291;52.010;4.446;2024-03-08T02:54:09;2.30;99.90
47521;DHT22;32291;52.010;4.446;2024-03-08T02:55:16;2.30;99.90
47521;DHT22;32291;52.010;4.446;2024-03-08T02:56:23;2.20;99.90
47521;DHT22;32291;52.010;4.446;2024-03-08T02:57:30;2.20;99.90
47521;DHT22;32291;52.010;4.446;2024-03-08T02:58:36;2.20;99.90
47521;DHT22;32291;52.010;4.446;2024-03-08T02:59:43;2.20;99.90
47521;DHT22;32291;52.010;4.446;2024-03-08T03:01:11;2.30;99.90
47521;DHT22;32291;52.010;4.446;2024-03-08T03:02:13;2.40;99.90
47521;DHT22;32291;52.010;4.446;2024-03-08T03:03:20;2.20;99.90
47521;DHT22;32291;52.010;4.446;2024-03-08T03:04:23;2.20;99.90
47521;DHT22;32291;52.010;4.446;2024-03-08T03:05:30;2.20;99.90
47521;DHT22;32291;52.010;4.446;2024-03-08T03:06:37;2.20;99.90
47521;DHT22;32291;52.010;4.446;2024-03-08T03:07:44;2.20;99.90
47521;DHT22;32291;52.010;4.446;2024-03-08T03:08:51;2.20;99.90
47521;DHT22;32291;52.010;4.446;2024-03-08T03:09:53;2.20;99.90
47521;DHT22;32291;52.010;4.446;2024-03-08T03:10:59;2.20;99.90
47521;DHT22;32291;52.010;4.446;2024-03-08T03:12:07;2.10;99.90
47521;DHT22;32291;52.010;4.446;2024-03-08T03:13:10;2.10;99.90
47521;DHT22;32291;52.010;4.446;2024-03-08T03:14:18;2.10;99.90
47521;DHT22;32291;52.010;4.446;2024-03-08T03:15:25;2.10;99.90
47521;DHT22;32291;52.010;4.446;2024-03-08T03:16:32;2.10;99.90
47521;DHT22;32291;52.010;4.446;2024-03-08T03:17:34;2.00;99.90
47521;DHT22;32291;52.010;4.446;2024-03-08T03:18:41;2.00;99.90
47521;DHT22;32291;52.010;4.446;2024-03-08T03:19:47;2.10;99.90
47521;DHT22;32291;52.010;4.446;2024-03-08T03:20:54;2.00;99.90
47521;DHT22;32291;52.010;4.446;2024-03-08T03:22:02;2.00;99.90
47521;DHT22;32291;52.010;4.446;2024-03-08T03:23:09;2.00;99.90
47521;DHT22;32291;52.010;4.446;2024-03-08T03:24:20;2.00;99.90
47521;DHT22;32291;52.010;4.446;2024-03-08T03:25:27;2.10;99.90
47521;DHT22;32291;52.010;4.446;2024-03-08T03:26:41;2.10;99.90
47521;DHT22;32291;52.010;4.446;2024-03-08T03:27:45;2.00;99.90
47521;DHT22;32291;52.010;4.446;2024-03-08T03:28:52;2.00;99.90
47521;DHT22;32291;52.010;4.446;2024-03-08T03:30:00;2.00;99.90
47521;DHT22;32291;52.010;4.446;2024-03-08T03:31:22;2.00;99.90
47521;DHT22;32291;52.010;4.446;2024-03-08T03:32:30;2.00;99.90
47521;DHT22;32291;52.010;4.446;2024-03-08T03:33:32;2.00;99.90
47521;DHT22;32291;52.010;4.446;2024-03-08T03:34:41;2.00;99.90
47521;DHT22;32291;52.010;4.446;2024-03-08T03:35:50;2.00;99.90
47521;DHT22;32291;52.010;4.446;2024-03-08T03:36:58;2.00;99.90
47521;DHT22;32291;52.010;4.446;2024-03-08T03:38:05;2.00;99.90
47521;DHT22;32291;52.010;4.446;2024-03-08T03:39:13;2.00;99.90
47521;DHT22;32291;52.010;4.446;2024-03-08T03:40:22;2.00;99.90
47521;DHT22;32291;52.010;4.446;2024-03-08T03:41:31;2.00;99.90
47521;DHT22;32291;52.010;4.446;2024-03-08T03:42:38;2.00;99.90
47521;DHT22;32291;52.010;4.446;2024-03-08T03:43:46;2.00;99.90
47521;DHT22;32291;52.010;4.446;2024-03-08T03:44:54;2.00;99.90
47521;DHT22;32291;52.010;4.446;2024-03-08T03:46:01;2.00;99.90
47521;DHT22;32291;52.010;4.446;2024-03-08T03:47:03;2.00;99.90
47521;DHT22;32291;52.010;4.446;2024-03-08T03:48:06;2.00;99.90
47521;DHT22;32291;52.010;4.446;2024-03-08T03:49:15;2.00;99.90
47521;DHT22;32291;52.010;4.446;2024-03-08T03:50:24;2.00;99.90
47521;DHT22;32291;52.010;4.446;2024-03-08T03:51:31;2.00;99.90
47521;DHT22;32291;52.010;4.446;2024-03-08T03:52:37;2.00;99.90
47521;DHT22;32291;52.010;4.446;2024-03-08T03:53:44;2.00;99.90
47521;DHT22;32291;52.010;4.446;2024-03-08T03:54:51;2.10;99.90
47521;DHT22;32291;52.010;4.446;2024-03-08T03:55:54;2.00;99.90
47521;DHT22;32291;52.010;4.446;2024-03-08T03:56:56;2.00;99.90
47521;DHT22;32291;52.010;4.446;2024-03-08T03:58:03;1.90;99.90
47521;DHT22;32291;52.010;4.446;2024-03-08T03:59:07;1.90;99.90
47521;DHT22;32291;52.010;4.446;2024-03-08T04:00:14;2.00;99.90
47521;DHT22;32291;52.010;4.446;2024-03-08T04:01:21;2.00;99.90
47521;DHT22;32291;52.010;4.446;2024-03-08T04:02:28;2.00;99.90
47521;DHT22;32291;52.010;4.446;2024-03-08T04:03:35;2.00;99.90
47521;DHT22;32291;52.010;4.446;2024-03-08T04:04:43;1.90;99.90
47521;DHT22;32291;52.010;4.446;2024-03-08T04:05:51;2.00;99.90
47521;DHT22;32291;52.010;4.446;2024-03-08T04:06:58;2.00;99.90
47521;DHT22;32291;52.010;4.446;2024-03-08T04:08:05;2.00;99.90
47521;DHT22;32291;52.010;4.446;2024-03-08T04:09:08;2.00;99.90
47521;DHT22;32291;52.010;4.446;2024-03-08T04:10:15;2.00;99.90
47521;DHT22;32291;52.010;4.446;2024-03-08T04:11:22;1.90;99.90
47521;DHT22;32291;52.010;4.446;2024-03-08T04:12:29;2.00;99.90
47521;DHT22;32291;52.010;4.446;2024-03-08T04:13:36;1.90;99.90
47521;DHT22;32291;52.010;4.446;2024-03-08T04:14:44;1.90;99.90
47521;DHT22;32291;52.010;4.446;2024-03-08T04:15:46;1.90;99.90
47521;DHT22;32291;52.010;4.446;2024-03-08T04:16:50;1.90;99.90
47521;DHT22;32291;52.010;4.446;2024-03-08T04:17:56;1.90;99.90
47521;DHT22;32291;52.010;4.446;2024-03-08T04:19:03;1.80;99.90
47521;DHT22;32291;52.010;4.446;2024-03-08T04:20:10;1.90;99.90
47521;DHT22;32291;52.010;4.446;2024-03-08T04:21:20;1.90;99.90
47521;DHT22;32291;52.010;4.446;2024-03-08T04:22:27;1.90;99.90
47521;DHT22;32291;52.010;4.446;2024-03-08T04:23:35;1.80;99.90
47521;DHT22;32291;52.010;4.446;2024-03-08T04:24:43;1.90;99.90
47521;DHT22;32291;52.010;4.446;2024-03-08T04:25:51;1.80;99.90
47521;DHT22;32291;52.010;4.446;2024-03-08T04:26:57;1.80;99.90
47521;DHT22;32291;52.010;4.446;2024-03-08T04:28:00;1.80;99.90
47521;DHT22;32291;52.010;4.446;2024-03-08T04:29:07;1.80;99.90
47521;DHT22;32291;52.010;4.446;2024-03-08T04:30:10;1.80;99.90
47521;DHT22;32291;52.010;4.446;2024-03-08T04:31:17;1.80;99.90
47521;DHT22;32291;52.010;4.446;2024-03-08T04:32:24;1.80;99.90
47521;DHT22;32291;52.010;4.446;2024-03-08T04:33:31;1.80;99.90
47521;DHT22;32291;52.010;4.446;2024-03-08T04:34:33;1.80;99.90
47521;DHT22;32291;52.010;4.446;2024-03-08T04:35:40;1.80;99.90
47521;DHT22;32291;52.010;4.446;2024-03-08T04:36:48;1.80;99.90
47521;DHT22;32291;52.010;4.446;2024-03-08T04:37:55;1.70;99.90
47521;DHT22;32291;52.010;4.446;2024-03-08T04:39:03;1.70;99.90
47521;DHT22;32291;52.010;4.446;2024-03-08T04:40:06;1.70;99.90
47521;DHT22;32291;52.010;4.446;2024-03-08T04:41:14;1.70;99.90
47521;DHT22;32291;52.010;4.446;2024-03-08T04:42:21;1.60;99.90
47521;DHT22;32291;52.010;4.446;2024-03-08T04:43:24;1.70;99.90
47521;DHT22;32291;52.010;4.446;2024-03-08T04:44:33;1.70;99.90
47521;DHT22;32291;52.010;4.446;2024-03-08T04:45:40;1.70;99.90
47521;DHT22;32291;52.010;4.446;2024-03-08T04:46:48;1.70;99.90
47521;DHT22;32291;52.010;4.446;2024-03-08T04:47:55;1.80;99.90
47521;DHT22;32291;52.010;4.446;2024-03-08T04:49:03;1.70;99.90
47521;DHT22;32291;52.010;4.446;2024-03-08T04:50:05;1.70;99.90
47521;DHT22;32291;52.010;4.446;2024-03-08T04:51:08;1.70;99.90
47521;DHT22;32291;52.010;4.446;2024-03-08T04:52:16;1.70;99.90
47521;DHT22;32291;52.010;4.446;2024-03-08T04:53:23;1.70;99.90
47521;DHT22;32291;52.010;4.446;2024-03-08T04:54:30;1.60;99.90
47521;DHT22;32291;52.010;4.446;2024-03-08T04:55:37;1.60;99.90
47521;DHT22;32291;52.010;4.446;2024-03-08T04:56:45;1.60;99.90
47521;DHT22;32291;52.010;4.446;2024-03-08T04:57:52;1.60;99.90
47521;DHT22;32291;52.010;4.446;2024-03-08T04:58:59;1.60;99.90
47521;DHT22;32291;52.010;4.446;2024-03-08T05:00:02;1.70;99.90
47521;DHT22;32291;52.010;4.446;2024-03-08T05:01:15;1.70;99.90
47521;DHT22;32291;52.010;4.446;2024-03-08T05:02:17;1.70;99.90
47521;DHT22;32291;52.010;4.446;2024-03-08T05:03:24;1.60;99.90
47521;DHT22;32291;52.010;4.446;2024-03-08T05:04:33;1.60;99.90
47521;DHT22;32291;52.010;4.446;2024-03-08T05:05:39;1.60;99.90
47521;DHT22;32291;52.010;4.446;2024-03-08T05:06:41;1.60;99.90
47521;DHT22;32291;52.010;4.446;2024-03-08T05:07:48;1.60;99.90
47521;DHT22;32291;52.010;4.446;2024-03-08T05:08:56;1.60;99.90
47521;DHT22;32291;52.010;4.446;2024-03-08T05:10:03;1.60;99.90
47521;DHT22;32291;52.010;4.446;2024-03-08T05:11:05;1.60;99.90
47521;DHT22;32291;52.010;4.446;2024-03-08T05:12:09;1.60;99.90
47521;DHT22;32291;52.010;4.446;2024-03-08T05:13:15;1.60;99.90
47521;DHT22;32291;52.010;4.446;2024-03-08T05:14:22;1.60;99.90
47521;DHT22;32291;52.010;4.446;2024-03-08T05:15:27;1.60;99.90
47521;DHT22;32291;52.010;4.446;2024-03-08T05:16:34;1.60;99.90
47521;DHT22;32291;52.010;4.446;2024-03-08T05:17:41;1.50;99.90
47521;DHT22;32291;52.010;4.446;2024-03-08T05:18:48;1.50;99.90
47521;DHT22;32291;52.010;4.446;2024-03-08T05:19:55;1.50;99.90
47521;DHT22;32291;52.010;4.446;2024-03-08T05:20:57;1.50;99.90
47521;DHT22;32291;52.010;4.446;2024-03-08T05:21:59;1.50;99.90
47521;DHT22;32291;52.010;4.446;2024-03-08T05:23:06;1.50;99.90
47521;DHT22;32291;52.010;4.446;2024-03-08T05:24:14;1.50;99.90
47521;DHT22;32291;52.010;4.446;2024-03-08T05:25:21;1.50;99.90
47521;DHT22;32291;52.010;4.446;2024-03-08T05:26:28;1.50;99.90
47521;DHT22;32291;52.010;4.446;2024-03-08T05:27:36;1.40;99.90
47521;DHT22;32291;52.010;4.446;2024-03-08T05:28:44;1.40;99.90
47521;DHT22;32291;52.010;4.446;2024-03-08T05:29:51;1.40;99.90
47521;DHT22;32291;52.010;4.446;2024-03-08T05:30:59;1.40;99.90
47521;DHT22;32291;52.010;4.446;2024-03-08T05:32:22;1.40;99.90
47521;DHT22;32291;52.010;4.446;2024-03-08T05:33:29;1.40;99.90
47521;DHT22;32291;52.010;4.446;2024-03-08T05:34:36;1.40;99.90
47521;DHT22;32291;52.010;4.446;2024-03-08T05:35:40;1.40;99.90
47521;DHT22;32291;52.010;4.446;2024-03-08T05:36:47;1.40;99.90
47521;DHT22;32291;52.010;4.446;2024-03-08T05:37:57;1.40;99.90
47521;DHT22;32291;52.010;4.446;2024-03-08T05:39:04;1.40;99.90
47521;DHT22;32291;52.010;4.446;2024-03-08T05:40:12;1.30;99.90
47521;DHT22;32291;52.010;4.446;2024-03-08T05:41:15;1.30;99.90
47521;DHT22;32291;52.010;4.446;2024-03-08T05:42:17;1.30;99.90
47521;DHT22;32291;52.010;4.446;2024-03-08T05:43:19;1.30;99.90
47521;DHT22;32291;52.010;4.446;2024-03-08T05:44:21;1.30;99.90
47521;DHT22;32291;52.010;4.446;2024-03-08T05:45:29;1.30;99.90
47521;DHT22;32291;52.010;4.446;2024-03-08T05:46:31;1.30;99.90
47521;DHT22;32291;52.010;4.446;2024-03-08T05:47:39;1.30;99.90
47521;DHT22;32291;52.010;4.446;2024-03-08T05:48:46;1.30;99.90
47521;DHT22;32291;52.010;4.446;2024-03-08T05:49:49;1.30;99.90
47521;DHT22;32291;52.010;4.446;2024-03-08T05:50:57;1.30;99.90
47521;DHT22;32291;52.010;4.446;2024-03-08T05:52:05;1.30;99.90
47521;DHT22;32291;52.010;4.446;2024-03-08T05:53:07;1.30;99.90
47521;DHT22;32291;52.010;4.446;2024-03-08T05:54:10;1.30;99.90
47521;DHT22;32291;52.010;4.446;2024-03-08T05:55:13;1.30;99.90
47521;DHT22;32291;52.010;4.446;2024-03-08T05:56:23;1.30;99.90
47521;DHT22;32291;52.010;4.446;2024-03-08T05:57:25;1.30;99.90
47521;DHT22;32291;52.010;4.446;2024-03-08T05:58:33;1.30;99.90
47521;DHT22;32291;52.010;4.446;2024-03-08T05:59:40;1.30;99.90
47521;DHT22;32291;52.010;4.446;2024-03-08T06:00:47;1.30;99.90
47521;DHT22;32291;52.010;4.446;2024-03-08T06:01:49;1.20;99.90
47521;DHT22;32291;52.010;4.446;2024-03-08T06:02:51;1.20;99.90
47521;DHT22;32291;52.010;4.446;2024-03-08T06:03:53;1.30;99.90
47521;DHT22;32291;52.010;4.446;2024-03-08T06:04:57;1.20;99.90
47521;DHT22;32291;52.010;4.446;2024-03-08T06:05:59;1.20;99.90
47521;DHT22;32291;52.010;4.446;2024-03-08T06:07:01;1.20;99.90
47521;DHT22;32291;52.010;4.446;2024-03-08T06:08:22;1.20;99.90
47521;DHT22;32291;52.010;4.446;2024-03-08T06:09:29;1.20;99.90
47521;DHT22;32291;52.010;4.446;2024-03-08T06:10:36;1.20;99.90
47521;DHT22;32291;52.010;4.446;2024-03-08T06:11:44;1.20;99.90
47521;DHT22;32291;52.010;4.446;2024-03-08T06:12:46;1.30;99.90
47521;DHT22;32291;52.010;4.446;2024-03-08T06:13:53;1.30;99.90
47521;DHT22;32291;52.010;4.446;2024-03-08T06:15:07;1.30;99.90
47521;DHT22;32291;52.010;4.446;2024-03-08T06:16:15;1.30;99.90
47521;DHT22;32291;52.010;4.446;2024-03-08T06:17:22;1.30;99.90
47521;DHT22;32291;52.010;4.446;2024-03-08T06:18:32;1.30;99.90
47521;DHT22;32291;52.010;4.446;2024-03-08T06:19:40;1.30;99.90
47521;DHT22;32291;52.010;4.446;2024-03-08T06:20:46;1.30;99.90
47521;DHT22;32291;52.010;4.446;2024-03-08T06:21:49;1.30;99.90
47521;DHT22;32291;52.010;4.446;2024-03-08T06:22:55;1.30;99.90
47521;DHT22;32291;52.010;4.446;2024-03-08T06:23:58;1.30;99.90
47521;DHT22;32291;52.010;4.446;2024-03-08T06:25:05;1.30;99.90
47521;DHT22;32291;52.010;4.446;2024-03-08T06:26:08;1.30;99.90
47521;DHT22;32291;52.010;4.446;2024-03-08T06:27:14;1.30;99.90
47521;DHT22;32291;52.010;4.446;2024-03-08T06:28:21;1.30;99.90
47521;DHT22;32291;52.010;4.446;2024-03-08T06:29:23;1.40;99.90
47521;DHT22;32291;52.010;4.446;2024-03-08T06:30:30;1.40;99.90
47521;DHT22;32291;52.010;4.446;2024-03-08T06:31:39;1.40;99.90
47521;DHT22;32291;52.010;4.446;2024-03-08T06:32:46;1.30;99.90
47521;DHT22;32291;52.010;4.446;2024-03-08T06:33:48;1.40;99.90
47521;DHT22;32291;52.010;4.446;2024-03-08T06:35:01;1.30;99.90
47521;DHT22;32291;52.010;4.446;2024-03-08T06:36:04;1.40;99.90
47521;DHT22;32291;52.010;4.446;2024-03-08T06:37:08;1.40;99.90
47521;DHT22;32291;52.010;4.446;2024-03-08T06:38:15;1.40;99.90
47521;DHT22;32291;52.010;4.446;2024-03-08T06:39:23;1.40;99.90
47521;DHT22;32291;52.010;4.446;2024-03-08T06:40:29;1.40;99.90
47521;DHT22;32291;52.010;4.446;2024-03-08T06:41:36;1.40;99.90
47521;DHT22;32291;52.010;4.446;2024-03-08T06:42:45;1.40;99.90
47521;DHT22;32291;52.010;4.446;2024-03-08T06:43:53;1.50;99.90
47521;DHT22;32291;52.010;4.446;2024-03-08T06:45:07;1.50;99.90
47521;DHT22;32291;52.010;4.446;2024-03-08T06:46:15;1.40;99.90
47521;DHT22;32291;52.010;4.446;2024-03-08T06:47:22;1.50;99.90
47521;DHT22;32291;52.010;4.446;2024-03-08T06:48:27;1.50;99.90
47521;DHT22;32291;52.010;4.446;2024-03-08T06:49:36;1.60;99.90
47521;DHT22;32291;52.010;4.446;2024-03-08T06:50:38;1.60;99.90
47521;DHT22;32291;52.010;4.446;2024-03-08T06:51:45;1.60;99.90
47521;DHT22;32291;52.010;4.446;2024-03-08T06:52:52;1.60;99.90
47521;DHT22;32291;52.010;4.446;2024-03-08T06:53:55;1.60;99.90
47521;DHT22;32291;52.010;4.446;2024-03-08T06:54:57;1.60;99.90
47521;DHT22;32291;52.010;4.446;2024-03-08T06:56:04;1.70;99.90
47521;DHT22;32291;52.010;4.446;2024-03-08T06:57:11;1.70;99.90
47521;DHT22;32291;52.010;4.446;2024-03-08T06:58:15;1.70;99.90
47521;DHT22;32291;52.010;4.446;2024-03-08T06:59:22;1.80;99.90
47521;DHT22;32291;52.010;4.446;2024-03-08T07:00:29;1.80;99.90
47521;DHT22;32291;52.010;4.446;2024-03-08T07:01:32;1.80;99.90
47521;DHT22;32291;52.010;4.446;2024-03-08T07:02:41;1.80;99.90
47521;DHT22;32291;52.010;4.446;2024-03-08T07:03:43;1.90;99.90
47521;DHT22;32291;52.010;4.446;2024-03-08T07:04:51;1.90;99.90
47521;DHT22;32291;52.010;4.446;2024-03-08T07:05:59;2.00;99.90